Decoded Metar for KISM (KISSIMMEE/ORLAND in FL, USA) (IATA:ISM) | Meteo·Mobile Aviation Weather
aviador You're here:

KISM Decoded Metar

KISSIMMEE/ORLAND in FL, USA
Report Time2018-08-21 06:56:00
UTC Time2018-08-21 07:47:05
Flight Rules vfr VFR
WindCalm
Visibility9999 m
Phenomena:N/A
Clouds:N/A
Expected CloudBase > 800 ft AGL from Temp-Dew spread
CeilingNone
Temp25°C (ISA +10)
Dew Point23°C (89% RH)
QNH1020 hPa
Density Alt1,391 ft
Elevation82 ft
Report Wrong Elevation
Raw Report
METAR KISM 210656Z AUTO 00000KT 10SM CLR 25/23 A3011 RMK AO2 SLP196
T02500228=

Extra information for KISM:More info

Metar Taf Metar & Taf Last 4 Metars F.Rules Stats Wind Profile Meteogram Temp Stats Airport Information Weather charts Add Link Nearby VenuesMetar ALERT Operation Metar Decoded Social comments

AIRNAV info for KISM